createdAt,value
2019-05-13T00:00:44.811Z,24.60
2019-05-13T00:03:13.724Z,25.00
2019-05-13T00:05:44.553Z,25.70
2019-05-13T00:08:13.957Z,25.90
2019-05-13T00:10:44.089Z,26.70
2019-05-13T00:13:14.691Z,26.60
2019-05-13T00:15:44.386Z,26.60
2019-05-13T00:18:14.356Z,26.40
2019-05-13T00:20:44.318Z,26.90
2019-05-13T00:23:14.250Z,26.50
2019-05-13T00:25:44.386Z,26.50
2019-05-13T00:28:14.440Z,26.00
2019-05-13T00:30:44.455Z,25.70
2019-05-13T00:33:13.967Z,26.00
2019-05-13T00:35:44.279Z,26.40
2019-05-13T00:38:14.174Z,26.70
2019-05-13T00:40:44.329Z,26.40
2019-05-13T00:43:14.361Z,26.00
2019-05-13T00:45:44.515Z,26.30
2019-05-13T00:48:14.346Z,25.90
2019-05-13T00:50:44.551Z,25.70
2019-05-13T00:53:13.455Z,25.20
2019-05-13T00:55:44.227Z,24.90
2019-05-13T00:58:13.982Z,24.80
2019-05-13T01:00:44.377Z,25.20
2019-05-13T01:03:14.219Z,25.10
2019-05-13T01:05:44.498Z,25.10
2019-05-13T01:08:14.578Z,25.30
2019-05-13T01:10:45.222Z,24.40
2019-05-13T01:13:13.743Z,24.30
2019-05-13T01:15:44.279Z,24.40
2019-05-13T01:18:14.252Z,24.40
2019-05-13T01:20:43.737Z,25.00
2019-05-13T01:23:14.198Z,24.70
2019-05-13T01:25:44.550Z,24.60
2019-05-13T01:28:13.498Z,24.80
2019-05-13T01:30:43.849Z,25.70
2019-05-13T01:33:14.441Z,26.10
2019-05-13T01:35:44.518Z,26.40
2019-05-13T01:38:13.592Z,25.80
2019-05-13T01:40:43.961Z,26.00
2019-05-13T01:43:14.384Z,26.00
2019-05-13T01:45:44.095Z,25.70
2019-05-13T01:48:14.145Z,26.30
2019-05-13T01:51:04.135Z,26.00
2019-05-13T01:53:33.609Z,25.00
2019-05-13T01:56:03.871Z,25.50
2019-05-13T01:58:33.994Z,25.40
2019-05-13T02:01:05.099Z,25.40
2019-05-13T02:03:33.831Z,25.70
2019-05-13T02:06:03.786Z,26.00
2019-05-13T02:08:33.676Z,26.50
2019-05-13T02:11:04.416Z,26.50
2019-05-13T02:13:34.402Z,26.70
2019-05-13T02:16:04.182Z,27.00
2019-05-13T02:18:34.183Z,27.30
2019-05-13T02:21:05.453Z,27.10
2019-05-13T02:23:34.022Z,27.00
2019-05-13T02:26:04.510Z,26.60
2019-05-13T02:28:33.496Z,25.90
2019-05-13T02:31:02.296Z,25.70
2019-05-13T02:33:33.888Z,24.70
2019-05-13T02:36:02.974Z,23.70
2019-05-13T02:38:35.568Z,23.80
2019-05-13T02:41:03.067Z,23.90
2019-05-13T02:43:33.317Z,23.70
2019-05-13T02:46:04.131Z,23.90
2019-05-13T02:48:33.198Z,23.20
2019-05-13T02:51:03.759Z,22.90
2019-05-13T02:53:33.628Z,22.40
2019-05-13T02:56:03.196Z,22.40
2019-05-13T02:58:33.294Z,22.50
2019-05-13T03:01:03.121Z,22.60
2019-05-13T03:03:32.948Z,22.50
2019-05-13T03:06:03.015Z,21.90
2019-05-13T03:08:41.113Z,21.70
2019-05-13T03:11:02.902Z,21.90
2019-05-13T03:13:32.771Z,22.40
2019-05-13T03:16:14.997Z,22.30
2019-05-13T03:18:44.007Z,22.40
2019-05-13T03:21:13.141Z,22.30
2019-05-13T03:23:44.007Z,21.80
2019-05-13T03:26:13.027Z,21.20
2019-05-13T03:28:43.664Z,21.20
2019-05-13T03:31:16.708Z,21.30
2019-05-13T03:33:46.841Z,21.40
2019-05-13T03:36:16.846Z,21.00
2019-05-13T03:38:59.755Z,21.40
2019-05-13T03:41:13.430Z,21.70
2019-05-13T03:43:42.984Z,22.00
2019-05-13T03:46:12.594Z,22.30
2019-05-13T03:48:42.896Z,22.70
2019-05-13T03:51:13.369Z,23.20
2019-05-13T03:53:43.208Z,23.50
2019-05-13T03:56:13.056Z,23.50
2019-05-13T03:58:43.430Z,23.70
2019-05-13T04:01:13.000Z,23.10
2019-05-13T04:03:43.887Z,23.30
2019-05-13T04:06:13.531Z,23.60
2019-05-13T04:08:43.369Z,22.50
2019-05-13T04:11:12.739Z,22.90
2019-05-13T04:13:42.970Z,23.40
2019-05-13T04:16:12.873Z,23.40
2019-05-13T04:18:42.566Z,23.60
2019-05-13T04:21:13.063Z,22.40
2019-05-13T04:23:42.586Z,22.90
2019-05-13T04:26:14.634Z,22.90
2019-05-13T04:28:43.434Z,23.10
2019-05-13T04:31:14.153Z,23.90
2019-05-13T04:33:42.797Z,24.00
2019-05-13T04:36:13.393Z,23.80
2019-05-13T04:38:44.219Z,23.20
2019-05-13T04:41:12.163Z,23.00
2019-05-13T04:43:43.757Z,22.70
2019-05-13T04:46:13.917Z,22.50
2019-05-13T04:48:44.183Z,22.30
2019-05-13T04:51:13.677Z,22.90
2019-05-13T04:53:42.516Z,22.80
2019-05-13T04:56:13.664Z,23.10
2019-05-13T04:58:42.801Z,23.50
2019-05-13T05:01:24.022Z,23.60
2019-05-13T05:04:11.700Z,22.90
2019-05-13T05:06:38.354Z,23.10
2019-05-13T05:09:42.864Z,22.00
2019-05-13T05:12:35.949Z,21.20
2019-05-13T05:15:12.083Z,22.40
2019-05-13T05:18:15.710Z,22.80
2019-05-13T05:21:01.502Z,23.10
2019-05-13T05:23:38.698Z,23.00
2019-05-13T05:26:31.404Z,23.30
2019-05-13T05:29:18.570Z,23.10
2019-05-13T05:32:02.374Z,22.70
2019-05-13T05:34:45.981Z,23.20
2019-05-13T05:37:26.480Z,22.70
2019-05-13T05:39:55.954Z,22.40
2019-05-13T05:42:24.698Z,22.60
2019-05-13T05:44:53.545Z,22.80
2019-05-13T05:47:22.099Z,23.40
2019-05-13T05:49:51.642Z,22.90
2019-05-13T05:52:21.253Z,23.50
2019-05-13T05:54:51.658Z,23.50
2019-05-13T05:57:22.324Z,23.00
2019-05-13T05:59:51.718Z,23.00
2019-05-13T06:02:22.897Z,22.50
2019-05-13T06:04:52.001Z,23.30
2019-05-13T06:07:21.937Z,23.10
2019-05-13T06:09:51.561Z,23.30
2019-05-13T06:12:21.430Z,21.80
2019-05-13T06:14:52.325Z,23.10
2019-05-13T06:17:21.886Z,22.90
2019-05-13T06:19:51.227Z,22.60
2019-05-13T06:22:21.708Z,22.90
2019-05-13T06:24:52.003Z,22.60
2019-05-13T06:27:21.355Z,23.20
2019-05-13T06:29:52.613Z,23.80
2019-05-13T06:32:25.478Z,23.20
2019-05-13T06:34:52.451Z,22.00
2019-05-13T06:37:21.711Z,22.40
2019-05-13T06:39:51.256Z,22.70
2019-05-13T06:42:22.045Z,21.90
2019-05-13T06:44:51.413Z,22.50
2019-05-13T06:47:21.924Z,22.50
2019-05-13T06:49:52.428Z,22.60
2019-05-13T06:52:21.329Z,21.70
2019-05-13T06:54:52.047Z,22.40
2019-05-13T06:57:22.020Z,21.90
2019-05-13T06:59:52.362Z,22.20
2019-05-13T07:02:21.625Z,22.00
2019-05-13T07:04:51.694Z,22.80
2019-05-13T07:07:21.943Z,23.00
2019-05-13T07:09:51.756Z,23.40
2019-05-13T07:12:21.931Z,23.30
2019-05-13T07:14:51.854Z,22.80
2019-05-13T07:17:22.328Z,22.50
2019-05-13T07:19:51.709Z,22.40
2019-05-13T07:22:22.931Z,21.90
2019-05-13T07:24:51.966Z,21.90
2019-05-13T07:27:22.918Z,22.00
2019-05-13T07:29:51.821Z,23.10
2019-05-13T07:32:22.118Z,23.60
2019-05-13T07:34:53.155Z,24.20
2019-05-13T07:37:21.869Z,24.40
2019-05-13T07:39:52.821Z,24.80
2019-05-13T07:42:22.186Z,23.80
2019-05-13T07:44:52.169Z,23.90
2019-05-13T07:47:22.323Z,24.20
2019-05-13T07:49:51.629Z,23.40
2019-05-13T07:52:22.566Z,22.80
2019-05-13T07:54:52.084Z,23.00
2019-05-13T07:57:21.496Z,23.20
2019-05-13T07:59:52.243Z,23.20
2019-05-13T08:02:21.676Z,23.20
2019-05-13T08:04:52.877Z,22.50
2019-05-13T08:07:22.683Z,22.40
2019-05-13T08:12:21.624Z,22.10
2019-05-13T08:14:52.163Z,21.70
2019-05-13T08:17:22.433Z,22.10
2019-05-13T08:19:51.978Z,21.70
2019-05-13T08:22:22.040Z,21.70
2019-05-13T08:24:54.060Z,21.90
2019-05-13T08:27:30.388Z,22.40
2019-05-13T08:29:52.317Z,23.40
2019-05-13T08:32:22.061Z,22.10
2019-05-13T08:34:52.607Z,22.50
2019-05-13T08:37:25.822Z,21.30
2019-05-13T08:39:54.505Z,21.40
2019-05-13T08:42:24.196Z,20.70
2019-05-13T08:44:58.023Z,21.10
2019-05-13T08:47:31.922Z,21.80
2019-05-13T08:50:04.222Z,21.00
2019-05-13T08:52:31.450Z,21.50
2019-05-13T08:55:01.445Z,21.60
2019-05-13T08:57:31.552Z,21.80
2019-05-13T09:00:04.924Z,21.90
2019-05-13T09:02:31.400Z,22.30
2019-05-13T09:05:02.292Z,22.50
2019-05-13T09:07:32.056Z,22.90
2019-05-13T09:10:01.860Z,23.20
2019-05-13T09:12:35.743Z,22.80
2019-05-13T09:15:03.310Z,23.30
2019-05-13T09:17:32.145Z,23.40
2019-05-13T09:20:02.866Z,23.40
2019-05-13T09:22:31.873Z,23.20
2019-05-13T09:25:02.117Z,23.20
2019-05-13T09:27:31.869Z,23.30
2019-05-13T09:30:02.674Z,23.00
2019-05-13T09:32:31.766Z,22.50
2019-05-13T09:35:02.984Z,22.60
2019-05-13T09:42:47.085Z,20.80
2019-05-13T09:45:02.179Z,21.10
2019-05-13T09:47:32.226Z,21.50
2019-05-13T09:50:00.959Z,22.30
2019-05-13T09:52:31.734Z,22.60
2019-05-13T09:55:02.845Z,22.40
2019-05-13T09:57:32.163Z,23.10
2019-05-13T10:00:01.687Z,23.10
2019-05-13T10:02:32.120Z,23.60
2019-05-13T10:05:02.217Z,23.30
2019-05-13T10:07:31.831Z,22.60
2019-05-13T10:10:01.659Z,23.00
2019-05-13T10:12:31.911Z,23.30
2019-05-13T10:15:01.909Z,23.70
2019-05-13T10:17:31.816Z,23.50
2019-05-13T10:20:00.597Z,23.90
2019-05-13T10:22:28.997Z,24.30
2019-05-13T10:24:57.489Z,24.80
2019-05-13T10:27:25.975Z,24.50
2019-05-13T10:29:54.637Z,24.60
2019-05-13T10:32:23.700Z,24.70
2019-05-13T10:34:53.129Z,24.80
2019-05-13T10:37:22.216Z,24.20
2019-05-13T10:39:51.753Z,24.00
2019-05-13T10:42:22.162Z,23.50
2019-05-13T10:44:52.360Z,23.50
2019-05-13T10:47:22.714Z,23.40
2019-05-13T10:49:52.350Z,23.10
2019-05-13T10:52:22.869Z,23.20
2019-05-13T10:54:52.656Z,23.40
2019-05-13T10:57:21.669Z,23.20
2019-05-13T10:59:52.478Z,23.50
2019-05-13T11:02:22.156Z,24.20
2019-05-13T11:04:52.460Z,24.10
2019-05-13T11:07:22.417Z,23.00
2019-05-13T11:09:52.755Z,23.10
2019-05-13T11:14:53.991Z,23.30
2019-05-13T11:19:51.370Z,22.40
2019-05-13T11:24:51.830Z,22.60
2019-05-13T11:27:20.018Z,22.80
2019-05-13T11:29:52.390Z,23.70
2019-05-13T11:32:21.612Z,23.30
2019-05-13T11:34:53.062Z,23.10
2019-05-13T11:37:22.353Z,22.80
2019-05-13T11:39:51.671Z,23.50
2019-05-13T11:42:22.675Z,23.70
2019-05-13T11:44:52.794Z,24.50
2019-05-13T11:47:20.559Z,25.40
2019-05-13T11:49:51.402Z,25.40
2019-05-13T11:52:19.277Z,25.00
2019-05-13T11:54:47.707Z,24.80
2019-05-13T11:57:16.381Z,24.10
2019-05-13T11:59:45.681Z,24.10
2019-05-13T12:02:14.320Z,23.60
2019-05-13T12:04:43.821Z,23.90
2019-05-13T12:07:13.509Z,23.60
2019-05-13T12:09:42.088Z,23.80
2019-05-13T12:12:13.228Z,23.20
2019-05-13T12:15:03.986Z,23.70
2019-05-13T12:17:14.098Z,24.00
2019-05-13T12:19:41.913Z,23.70
2019-05-13T12:22:13.077Z,24.10
2019-05-13T12:24:42.265Z,24.50
2019-05-13T12:27:11.574Z,24.80
2019-05-13T12:29:43.059Z,24.50
2019-05-13T12:32:13.522Z,24.40
2019-05-13T12:34:45.623Z,23.90
2019-05-13T12:37:12.254Z,24.60
2019-05-13T12:39:43.851Z,25.00
2019-05-13T12:42:12.736Z,25.90
2019-05-13T12:44:59.818Z,25.80
2019-05-13T12:47:12.121Z,25.10
2019-05-13T12:49:43.769Z,25.40
2019-05-13T12:52:13.094Z,25.10
2019-05-13T12:54:43.826Z,24.70
2019-05-13T12:57:14.996Z,25.10
2019-05-13T12:59:43.536Z,24.90
2019-05-13T13:02:13.408Z,25.70
2019-05-13T13:05:06.830Z,25.40
2019-05-13T13:07:13.389Z,25.50
2019-05-13T13:09:43.233Z,25.80
2019-05-13T13:12:12.089Z,26.10
2019-05-13T13:14:44.407Z,26.60
2019-05-13T13:17:12.926Z,25.60
2019-05-13T13:19:41.794Z,26.00
2019-05-13T13:22:13.312Z,26.50
2019-05-13T13:24:48.363Z,27.00
2019-05-13T13:27:19.320Z,27.90
2019-05-13T13:29:43.332Z,27.60
2019-05-13T13:32:13.266Z,26.10
2019-05-13T13:34:43.888Z,26.30
2019-05-13T13:37:11.694Z,25.20
2019-05-13T13:39:43.153Z,25.60
2019-05-13T13:42:12.907Z,25.50
2019-05-13T13:44:42.866Z,25.90
2019-05-13T13:47:15.061Z,26.40
2019-05-13T13:49:43.579Z,26.40
2019-05-13T13:52:16.119Z,26.20
2019-05-13T13:54:44.219Z,25.60
2019-05-13T13:57:13.348Z,26.60
2019-05-13T14:00:14.063Z,26.60
2019-05-13T14:02:13.433Z,26.00
2019-05-13T14:04:42.989Z,26.40
2019-05-13T14:07:34.822Z,26.40
2019-05-13T14:09:42.302Z,27.30
2019-05-13T14:12:11.401Z,27.20
2019-05-13T14:14:41.496Z,27.00
2019-05-13T14:17:11.341Z,26.60
2019-05-13T14:19:42.209Z,26.10
2019-05-13T14:22:12.350Z,25.50
2019-05-13T14:24:42.517Z,25.50
2019-05-13T14:27:12.036Z,24.60
2019-05-13T14:29:46.115Z,25.30
2019-05-13T14:32:11.266Z,25.70
2019-05-13T14:34:42.028Z,25.80
2019-05-13T14:37:11.722Z,26.40
2019-05-13T14:39:40.232Z,27.10
2019-05-13T14:42:08.708Z,27.40
2019-05-13T14:44:37.251Z,27.50
2019-05-13T14:47:05.853Z,26.00
2019-05-13T14:49:34.352Z,25.40
2019-05-13T14:52:02.845Z,22.80
2019-05-13T14:54:31.551Z,22.60
2019-05-13T14:57:02.296Z,23.40
2019-05-13T14:59:31.483Z,23.90
2019-05-13T15:02:01.347Z,23.30
2019-05-13T15:04:32.460Z,24.20
2019-05-13T15:07:00.206Z,24.10
2019-05-13T15:09:31.272Z,22.80
2019-05-13T15:12:01.759Z,23.30
2019-05-13T15:14:31.765Z,22.80
2019-05-13T15:17:04.149Z,23.10
2019-05-13T15:19:31.737Z,23.10
2019-05-13T15:22:00.105Z,23.40
2019-05-13T15:24:28.816Z,23.80
2019-05-13T15:26:57.366Z,24.40
2019-05-13T15:29:25.901Z,25.20
2019-05-13T15:31:54.392Z,24.60
2019-05-13T15:34:22.938Z,24.40
2019-05-13T15:36:51.551Z,23.90
2019-05-13T15:39:20.353Z,24.40
2019-05-13T15:41:49.019Z,24.40
2019-05-13T15:44:17.587Z,23.90
2019-05-13T15:46:46.195Z,23.50
2019-05-13T15:49:14.886Z,24.20
2019-05-13T15:51:43.792Z,24.50
2019-05-13T15:54:15.523Z,24.90
2019-05-13T15:56:42.848Z,24.90
2019-05-13T15:59:12.548Z,25.50
2019-05-13T16:01:41.596Z,25.30
2019-05-13T16:04:12.781Z,24.70
2019-05-13T16:06:41.835Z,25.80
2019-05-13T16:09:11.696Z,26.20
2019-05-13T16:11:41.470Z,26.00
2019-05-13T16:14:11.732Z,25.90
2019-05-13T16:16:41.733Z,25.30
2019-05-13T16:19:10.503Z,24.70
2019-05-13T16:21:41.385Z,23.50
2019-05-13T16:24:11.737Z,23.80
2019-05-13T16:26:42.339Z,22.80
2019-05-13T16:29:12.490Z,23.10
2019-05-13T16:31:41.568Z,24.30
2019-05-13T16:34:12.823Z,24.60
2019-05-13T16:36:42.948Z,25.60
2019-05-13T16:39:12.311Z,25.60
2019-05-13T16:41:42.598Z,26.40
2019-05-13T16:44:39.149Z,26.50
2019-05-13T16:46:42.654Z,27.00
2019-05-13T16:49:12.206Z,27.60
2019-05-13T16:51:42.656Z,26.70
2019-05-13T16:54:11.540Z,26.50
2019-05-13T16:56:42.046Z,27.30
2019-05-13T16:59:10.582Z,26.80
2019-05-13T17:01:39.203Z,26.60
2019-05-13T17:04:07.761Z,25.30
2019-05-13T17:06:36.394Z,26.00
2019-05-13T17:09:05.928Z,25.60
2019-05-13T17:11:34.556Z,25.90
2019-05-13T17:14:05.815Z,25.30
2019-05-13T17:16:33.453Z,24.90
2019-05-13T17:19:02.102Z,24.40
2019-05-13T17:21:31.665Z,24.30
2019-05-13T17:24:01.578Z,23.50
2019-05-13T17:26:32.495Z,24.00
2019-05-13T17:29:01.406Z,24.70
2019-05-13T17:31:32.394Z,24.60
2019-05-13T17:34:01.450Z,24.50
2019-05-13T17:36:32.405Z,24.30
2019-05-13T17:39:01.875Z,23.80
2019-05-13T17:41:32.165Z,24.40
2019-05-13T17:44:02.451Z,23.70
2019-05-13T17:46:32.633Z,22.70
2019-05-13T17:49:01.317Z,22.60
2019-05-13T17:51:30.025Z,22.10
2019-05-13T17:54:01.264Z,22.20
2019-05-13T17:56:29.226Z,22.60
2019-05-13T17:58:57.855Z,22.10
2019-05-13T18:01:26.468Z,22.90
2019-05-13T18:03:55.128Z,22.20
2019-05-13T18:06:23.670Z,22.90
2019-05-13T18:08:52.291Z,22.70
2019-05-13T18:11:21.883Z,23.00
2019-05-13T18:13:51.874Z,22.70
2019-05-13T18:16:21.741Z,22.40
2019-05-13T18:18:52.122Z,21.90
2019-05-13T18:21:20.975Z,22.30
2019-05-13T18:23:51.981Z,22.60
2019-05-13T18:26:21.627Z,23.00
2019-05-13T18:28:51.512Z,23.90
2019-05-13T18:31:20.244Z,23.80
2019-05-13T18:33:50.982Z,23.70
2019-05-13T18:36:19.228Z,24.50
2019-05-13T18:38:47.899Z,25.10
2019-05-13T18:41:16.584Z,24.80
2019-05-13T18:43:45.262Z,24.80
2019-05-13T18:46:13.937Z,24.10
2019-05-13T18:48:57.396Z,25.10
2019-05-13T18:51:13.016Z,25.20
2019-05-13T18:53:41.697Z,25.90
2019-05-13T18:56:12.290Z,26.40
2019-05-13T18:58:40.647Z,26.70
2019-05-13T19:01:11.222Z,26.30
2019-05-13T19:03:41.442Z,25.30
2019-05-13T19:06:11.674Z,25.40
2019-05-13T19:08:41.365Z,25.00
2019-05-13T19:11:11.756Z,25.10
2019-05-13T19:13:41.619Z,24.30
2019-05-13T19:16:11.895Z,25.10
2019-05-13T19:18:42.234Z,25.40
2019-05-13T19:21:11.216Z,25.80
2019-05-13T19:23:41.785Z,25.80
2019-05-13T19:26:11.311Z,26.00
2019-05-13T19:28:40.223Z,26.30
2019-05-13T19:31:09.018Z,26.30
2019-05-13T19:33:37.748Z,26.00
2019-05-13T19:36:06.626Z,26.00
2019-05-13T19:38:38.729Z,25.50
2019-05-13T19:41:08.267Z,25.50
2019-05-13T19:43:41.947Z,24.60
2019-05-13T19:46:11.449Z,24.20
2019-05-13T19:48:41.713Z,24.40
2019-05-13T19:51:14.503Z,24.50
2019-05-13T19:53:48.877Z,23.80
2019-05-13T19:56:18.445Z,24.00
2019-05-13T19:58:48.089Z,24.40
2019-05-13T20:01:21.688Z,24.40
2019-05-13T20:03:51.784Z,24.20
2019-05-13T20:06:22.852Z,24.20
2019-05-13T20:08:52.193Z,23.90
2019-05-13T20:11:21.853Z,23.70
2019-05-13T20:13:52.154Z,23.90
2019-05-13T20:16:22.186Z,24.20
2019-05-13T20:18:51.879Z,24.50
2019-05-13T20:21:20.895Z,24.60
2019-05-13T20:23:51.920Z,24.80
2019-05-13T20:26:21.673Z,25.10
2019-05-13T20:28:56.671Z,24.60
2019-05-13T20:31:25.609Z,24.20
2019-05-13T20:33:54.356Z,23.70
2019-05-13T20:36:23.135Z,22.90
2019-05-13T20:38:52.369Z,22.70
2019-05-13T20:41:22.362Z,22.90
2019-05-13T20:43:52.053Z,22.90
2019-05-13T20:46:23.068Z,22.60
2019-05-13T20:48:51.929Z,23.10
2019-05-13T20:51:21.993Z,23.00
2019-05-13T20:53:51.806Z,23.00
2019-05-13T20:56:21.465Z,22.40
2019-05-13T20:58:51.552Z,22.40
2019-05-13T21:01:20.436Z,22.50
2019-05-13T21:03:51.328Z,23.00
2019-05-13T21:06:19.257Z,22.90
2019-05-13T21:08:47.805Z,23.20
2019-05-13T21:11:16.450Z,23.40
2019-05-13T21:13:44.980Z,23.50
2019-05-13T21:16:13.726Z,23.50
2019-05-13T21:18:42.302Z,23.70
2019-05-13T21:21:11.767Z,24.00
2019-05-13T21:23:41.685Z,24.30
2019-05-13T21:26:13.122Z,24.50
2019-05-13T21:28:41.830Z,24.60
2019-05-13T21:31:11.350Z,24.50
2019-05-13T21:33:40.170Z,24.50
2019-05-13T21:36:08.657Z,24.50
2019-05-13T21:38:37.757Z,24.60
2019-05-13T21:41:06.238Z,24.80
2019-05-13T21:43:34.684Z,24.80
2019-05-13T21:46:03.365Z,24.80
2019-05-13T21:48:32.555Z,25.10
2019-05-13T21:51:01.363Z,25.60
2019-05-13T21:53:32.331Z,25.70
2019-05-13T21:56:02.324Z,25.70
2019-05-13T21:58:31.265Z,25.60
2019-05-13T22:01:01.567Z,25.60
2019-05-13T22:03:33.227Z,25.60
2019-05-13T22:06:01.979Z,24.30
2019-05-13T22:08:32.066Z,24.00
2019-05-13T22:11:01.768Z,23.70
2019-05-13T22:13:31.539Z,23.70
2019-05-13T22:16:01.645Z,23.80
2019-05-13T22:18:31.373Z,23.80
2019-05-13T22:21:01.786Z,24.00
2019-05-13T22:23:32.079Z,24.20
2019-05-13T22:26:01.595Z,24.40
2019-05-13T22:28:31.323Z,24.70
2019-05-13T22:31:01.333Z,25.10
2019-05-13T22:33:32.317Z,25.30
2019-05-13T22:36:01.664Z,25.40
2019-05-13T22:38:32.263Z,25.50
2019-05-13T22:41:01.223Z,25.60
2019-05-13T22:43:32.047Z,25.60
2019-05-13T22:46:00.119Z,25.40
2019-05-13T22:48:29.473Z,25.70
2019-05-13T22:51:01.173Z,25.80
2019-05-13T22:53:31.564Z,25.80
2019-05-13T22:55:59.392Z,25.80
2019-05-13T22:58:27.789Z,25.70
2019-05-13T23:00:56.207Z,25.70
2019-05-13T23:03:24.768Z,25.50
2019-05-13T23:05:53.305Z,24.60
2019-05-13T23:08:21.839Z,24.60
2019-05-13T23:10:51.446Z,24.80
2019-05-13T23:13:20.159Z,24.80
2019-05-13T23:15:48.763Z,24.90
2019-05-13T23:18:17.381Z,25.00
2019-05-13T23:20:45.929Z,24.50
2019-05-13T23:23:14.414Z,24.50
2019-05-13T23:25:43.325Z,24.50
2019-05-13T23:28:11.954Z,24.70
2019-05-13T23:30:41.750Z,25.10
2019-05-13T23:33:11.641Z,25.30
2019-05-13T23:35:41.806Z,25.30
2019-05-13T23:38:10.458Z,25.30
2019-05-13T23:40:39.077Z,24.80
2019-05-13T23:43:07.534Z,24.10
2019-05-13T23:45:36.017Z,23.00
2019-05-13T23:48:04.494Z,22.70
2019-05-13T23:50:32.971Z,22.30
2019-05-13T23:53:01.379Z,22.20
2019-05-13T23:55:31.983Z,22.00
2019-05-13T23:58:01.681Z,22.50
